Time;durP1;ratioP1;P1;durP2;ratioP2;P2;SDS_P1;SDS_P2;PMS_P1;PMS_P2;Temp;Humidity;BMP_temperature;BMP_pressure;BME280_temperature;BME280_humidity;BME280_pressure;Samples;Min_cycle;Max_cycle;Signal;HPM_P1;HPM_P2
2021/11/06 00:01:21;;;;;;;;;;;9.30;59.90;;;;;;6275840;22;19902;-69
2021/11/06 00:03:47;;;;;;;;;;;9.30;59.90;;;;;;6275726;22;19900;-68
2021/11/06 00:06:12;;;;;;;;;;;9.30;60.00;;;;;;6274224;22;20342;-69
2021/11/06 00:08:38;;;;;;;;;;;9.40;60.10;;;;;;6275713;22;19953;-69
2021/11/06 00:11:04;;;;;;;;;;;9.40;60.10;;;;;;6275729;22;19934;-69
2021/11/06 00:13:30;;;;;;;;;;;9.50;60.10;;;;;;6275586;22;19911;-70
2021/11/06 00:15:56;;;;;;;;;;;9.50;60.00;;;;;;6275542;22;20238;-70
2021/11/06 00:18:22;;;;;;;;;;;9.60;60.10;;;;;;6275892;22;19926;-70
2021/11/06 00:20:48;;;;;;;;;;;9.60;60.00;;;;;;6275771;22;19906;-70
2021/11/06 00:23:14;;;;;;;;;;;9.60;59.90;;;;;;6275493;22;19903;-71
2021/11/06 00:25:40;;;;;;;;;;;9.60;59.80;;;;;;6275704;22;19899;-69
2021/11/06 00:28:06;;;;;;;;;;;9.70;59.70;;;;;;6275776;22;19926;-69
2021/11/06 00:30:31;;;;;;;;;;;9.70;59.70;;;;;;6274126;22;19953;-69
2021/11/06 00:32:57;;;;;;;;;;;9.70;59.60;;;;;;6275633;22;20260;-68
2021/11/06 00:35:24;;;;;;;;;;;9.70;59.50;;;;;;6273947;22;19900;-70
2021/11/06 00:37:50;;;;;;;;;;;9.70;59.40;;;;;;6275446;22;19950;-69
2021/11/06 00:40:16;;;;;;;;;;;9.70;59.40;;;;;;6273957;22;20334;-69
2021/11/06 00:42:42;;;;;;;;;;;9.60;59.30;;;;;;6273942;22;19903;-70
2021/11/06 00:45:08;;;;;;;;;;;9.60;59.30;;;;;;6274013;22;19900;-69
2021/11/06 00:47:34;;;;;;;;;;;9.60;59.30;;;;;;6275576;22;19903;-69
2021/11/06 00:49:59;;;;;;;;;;;9.60;59.30;;;;;;6273971;22;19899;-69
2021/11/06 00:52:25;;;;;;;;;;;9.50;59.30;;;;;;6275539;22;20231;-69
2021/11/06 00:54:51;;;;;;;;;;;9.50;59.20;;;;;;6273868;22;19906;-69
2021/11/06 00:57:17;;;;;;;;;;;9.40;59.10;;;;;;6273812;22;19903;-69
2021/11/06 00:59:42;;;;;;;;;;;9.40;59.10;;;;;;6275535;22;19927;-69
2021/11/06 01:02:08;;;;;;;;;;;9.30;59.10;;;;;;6276310;22;19909;-70
2021/11/06 01:04:33;;;;;;;;;;;9.30;59.20;;;;;;6275701;22;19994;-69
2021/11/06 01:06:59;;;;;;;;;;;9.30;59.20;;;;;;6275883;22;19908;-70
2021/11/06 01:09:25;;;;;;;;;;;9.20;59.20;;;;;;6277469;22;19899;-70
2021/11/06 01:11:50;;;;;;;;;;;9.10;59.10;;;;;;6277104;22;19906;-69
2021/11/06 01:14:16;;;;;;;;;;;9.10;59.10;;;;;;6277057;22;19918;-69
2021/11/06 01:16:42;;;;;;;;;;;9.00;59.10;;;;;;6277222;22;19899;-69
2021/11/06 01:19:08;;;;;;;;;;;8.90;59.10;;;;;;6277248;22;20211;-69
2021/11/06 01:21:33;;;;;;;;;;;8.90;59.20;;;;;;6277108;22;19926;-69
2021/11/06 01:23:59;;;;;;;;;;;8.80;59.10;;;;;;6277238;22;19899;-69
2021/11/06 01:26:25;;;;;;;;;;;8.80;59.10;;;;;;6277165;22;19895;-69
2021/11/06 01:28:50;;;;;;;;;;;8.70;59.10;;;;;;6277001;22;20287;-69
2021/11/06 01:31:16;;;;;;;;;;;8.60;59.20;;;;;;6276945;22;19895;-69
2021/11/06 01:33:41;;;;;;;;;;;8.60;59.20;;;;;;6275271;22;19903;-69
2021/11/06 01:36:07;;;;;;;;;;;8.50;59.30;;;;;;6276942;22;19899;-69
2021/11/06 01:38:33;;;;;;;;;;;8.50;59.40;;;;;;6276818;22;20312;-69
2021/11/06 01:40:59;;;;;;;;;;;8.40;59.40;;;;;;6276947;22;19999;-69
2021/11/06 01:43:24;;;;;;;;;;;8.40;59.60;;;;;;6276912;22;19899;-69
2021/11/06 01:45:57;;;;;;;;;;;8.30;59.60;;;;;;6276946;22;19966;-69
2021/11/06 01:48:22;;;;;;;;;;;8.30;59.70;;;;;;6276828;22;19899;-69
2021/11/06 01:50:48;;;;;;;;;;;8.30;59.80;;;;;;6276885;22;19931;-69
2021/11/06 01:53:14;;;;;;;;;;;8.20;60.00;;;;;;6276903;22;19949;-69
2021/11/06 01:55:40;;;;;;;;;;;8.30;60.20;;;;;;6275181;22;19899;-69
2021/11/06 01:58:06;;;;;;;;;;;8.30;60.30;;;;;;6276910;22;19899;-69
2021/11/06 02:00:31;;;;;;;;;;;8.30;60.30;;;;;;6275275;22;19903;-69
2021/11/06 02:02:57;;;;;;;;;;;8.30;60.40;;;;;;6274911;22;19952;-69
2021/11/06 02:05:23;;;;;;;;;;;8.40;60.60;;;;;;6276626;22;19900;-69
2021/11/06 02:07:48;;;;;;;;;;;8.40;60.70;;;;;;6276738;22;19909;-69
2021/11/06 02:10:15;;;;;;;;;;;8.40;60.60;;;;;;6276587;22;19931;-69
2021/11/06 02:12:42;;;;;;;;;;;8.40;60.60;;;;;;6276541;22;19977;-69
2021/11/06 02:15:09;;;;;;;;;;;8.40;60.60;;;;;;6274407;22;19942;-69
2021/11/06 02:17:34;;;;;;;;;;;8.40;60.40;;;;;;6276693;22;20325;-69
2021/11/06 02:20:00;;;;;;;;;;;8.40;60.50;;;;;;6276639;22;19930;-69
2021/11/06 02:22:29;;;;;;;;;;;8.40;60.60;;;;;;6274805;22;19985;-69
2021/11/06 02:24:55;;;;;;;;;;;8.30;60.60;;;;;;6274905;22;20239;-69
2021/11/06 02:27:21;;;;;;;;;;;8.30;60.60;;;;;;6276529;22;19895;-70
2021/11/06 02:29:47;;;;;;;;;;;8.20;60.60;;;;;;6274956;22;20333;-69
2021/11/06 02:32:13;;;;;;;;;;;8.20;60.80;;;;;;6274890;22;19899;-69
2021/11/06 02:34:38;;;;;;;;;;;8.20;61.00;;;;;;6276464;22;19906;-69
2021/11/06 02:37:04;;;;;;;;;;;8.10;61.10;;;;;;6276487;22;19974;-70
2021/11/06 02:39:30;;;;;;;;;;;8.10;61.10;;;;;;6276447;22;20212;-69
2021/11/06 02:41:57;;;;;;;;;;;8.00;61.20;;;;;;6274747;22;19907;-71
2021/11/06 02:44:23;;;;;;;;;;;8.00;61.40;;;;;;6274831;22;19899;-70
2021/11/06 02:46:51;;;;;;;;;;;8.00;61.50;;;;;;6276549;22;19900;-70
2021/11/06 02:49:17;;;;;;;;;;;7.90;61.40;;;;;;6276475;22;19906;-69
2021/11/06 02:51:43;;;;;;;;;;;7.90;61.30;;;;;;6274702;22;19903;-68
2021/11/06 02:54:08;;;;;;;;;;;7.90;61.20;;;;;;6274953;22;19899;-68
2021/11/06 02:56:34;;;;;;;;;;;7.80;61.00;;;;;;6274839;22;19903;-68
2021/11/06 02:59:00;;;;;;;;;;;7.80;61.00;;;;;;6276353;22;19900;-69
2021/11/06 03:01:26;;;;;;;;;;;7.70;60.90;;;;;;6276497;22;19907;-68
2021/11/06 03:03:51;;;;;;;;;;;7.70;61.00;;;;;;6275861;22;19945;-68
2021/11/06 03:06:17;;;;;;;;;;;7.70;60.90;;;;;;6276040;22;19974;-68
2021/11/06 03:08:43;;;;;;;;;;;7.60;60.90;;;;;;6275969;22;20270;-69
2021/11/06 03:11:09;;;;;;;;;;;7.60;61.00;;;;;;6275888;22;19906;-69
2021/11/06 03:13:36;;;;;;;;;;;7.50;60.90;;;;;;6275721;22;20216;-69
2021/11/06 03:16:02;;;;;;;;;;;7.50;61.70;;;;;;6274096;22;19900;-68
2021/11/06 03:18:27;;;;;;;;;;;7.40;60.80;;;;;;6275898;22;19922;-68
2021/11/06 03:20:53;;;;;;;;;;;7.40;60.90;;;;;;6275750;22;19899;-69
2021/11/06 03:23:18;;;;;;;;;;;7.30;60.80;;;;;;6275720;22;19910;-69
2021/11/06 03:25:44;;;;;;;;;;;7.30;60.90;;;;;;6275770;22;19900;-69
2021/11/06 03:28:10;;;;;;;;;;;7.30;60.90;;;;;;6275838;22;19945;-69
2021/11/06 03:30:36;;;;;;;;;;;7.20;60.90;;;;;;6275708;22;19946;-69
2021/11/06 03:33:02;;;;;;;;;;;7.20;61.00;;;;;;6274072;22;19899;-68
2021/11/06 03:35:27;;;;;;;;;;;7.20;61.00;;;;;;6275784;22;19989;-69
2021/11/06 03:37:53;;;;;;;;;;;7.10;61.00;;;;;;6275685;22;20307;-69
2021/11/06 03:40:19;;;;;;;;;;;7.10;61.10;;;;;;6275757;22;19923;-68
2021/11/06 03:42:46;;;;;;;;;;;7.10;61.10;;;;;;6275970;22;19911;-69
2021/11/06 03:45:12;;;;;;;;;;;7.00;61.10;;;;;;6275597;22;19905;-69
2021/11/06 03:47:37;;;;;;;;;;;7.00;61.20;;;;;;6275614;22;20235;-69
2021/11/06 03:50:04;;;;;;;;;;;7.00;61.30;;;;;;6273962;22;19906;-68
2021/11/06 03:52:30;;;;;;;;;;;7.00;61.40;;;;;;6275609;22;19899;-68
2021/11/06 03:54:56;;;;;;;;;;;7.00;61.40;;;;;;6273792;22;19949;-68
2021/11/06 03:57:22;;;;;;;;;;;6.90;61.40;;;;;;6275625;22;19953;-69
2021/11/06 03:59:47;;;;;;;;;;;6.90;61.40;;;;;;6275620;22;19903;-69
2021/11/06 04:02:13;;;;;;;;;;;6.90;61.40;;;;;;6275498;22;19918;-69
2021/11/06 04:04:38;;;;;;;;;;;6.80;61.40;;;;;;6275465;22;19899;-69
2021/11/06 04:07:04;;;;;;;;;;;6.80;61.40;;;;;;6275473;22;19895;-69
2021/11/06 04:09:30;;;;;;;;;;;6.80;61.50;;;;;;6275830;22;20389;-69
2021/11/06 04:11:55;;;;;;;;;;;6.80;61.60;;;;;;6275416;22;19949;-69
2021/11/06 04:14:21;;;;;;;;;;;6.80;61.60;;;;;;6275266;22;19922;-69
2021/11/06 04:16:47;;;;;;;;;;;6.80;61.70;;;;;;6275396;22;20296;-69
2021/11/06 04:19:13;;;;;;;;;;;6.80;61.70;;;;;;6275189;22;20366;-69
2021/11/06 04:21:40;;;;;;;;;;;6.70;61.70;;;;;;6275356;22;19903;-69
2021/11/06 04:24:06;;;;;;;;;;;6.70;61.70;;;;;;6275705;22;19978;-69
2021/11/06 04:26:32;;;;;;;;;;;6.70;61.70;;;;;;6273812;22;19952;-69
2021/11/06 04:28:58;;;;;;;;;;;6.70;61.80;;;;;;6275235;22;19899;-69
2021/11/06 04:31:23;;;;;;;;;;;6.70;61.80;;;;;;6275440;22;19903;-69
2021/11/06 04:33:49;;;;;;;;;;;6.60;61.70;;;;;;6275330;22;20234;-69
2021/11/06 04:36:14;;;;;;;;;;;6.60;61.70;;;;;;6275470;22;19974;-69
2021/11/06 04:38:40;;;;;;;;;;;6.60;61.90;;;;;;6277437;22;19930;-69
2021/11/06 04:41:06;;;;;;;;;;;6.60;62.10;;;;;;6277251;22;19899;-69
2021/11/06 04:43:31;;;;;;;;;;;6.60;62.20;;;;;;6277431;22;19934;-69
2021/11/06 04:45:57;;;;;;;;;;;6.60;63.10;;;;;;6277257;22;20218;-69
2021/11/06 04:48:22;;;;;;;;;;;6.60;62.30;;;;;;6277424;22;19899;-69
2021/11/06 04:50:48;;;;;;;;;;;6.60;62.30;;;;;;6277317;22;19900;-69
2021/11/06 04:53:14;;;;;;;;;;;6.70;62.40;;;;;;6277352;22;20334;-69
2021/11/06 04:55:39;;;;;;;;;;;6.70;62.30;;;;;;6277256;22;19931;-69
2021/11/06 04:58:05;;;;;;;;;;;6.60;62.20;;;;;;6275738;22;19899;-69
2021/11/06 05:00:31;;;;;;;;;;;6.70;62.30;;;;;;6275578;22;20270;-69
2021/11/06 05:02:56;;;;;;;;;;;6.60;62.20;;;;;;6277020;22;20260;-69
2021/11/06 05:05:23;;;;;;;;;;;6.60;62.20;;;;;;6277287;22;19899;-69
2021/11/06 05:07:49;;;;;;;;;;;6.60;62.20;;;;;;6277313;22;19952;-69
2021/11/06 05:10:15;;;;;;;;;;;6.60;62.30;;;;;;6277202;22;20390;-69
2021/11/06 05:12:40;;;;;;;;;;;6.60;62.20;;;;;;6277153;22;19919;-69
2021/11/06 05:15:06;;;;;;;;;;;6.50;62.10;;;;;;6276888;22;19911;-69
2021/11/06 05:17:32;;;;;;;;;;;6.50;62.10;;;;;;6277198;22;19903;-69
2021/11/06 05:19:58;;;;;;;;;;;6.50;62.10;;;;;;6277027;22;19899;-69
2021/11/06 05:22:24;;;;;;;;;;;6.50;62.20;;;;;;6275357;22;19910;-69
2021/11/06 05:24:50;;;;;;;;;;;6.40;62.10;;;;;;6276983;22;20338;-69
2021/11/06 05:27:16;;;;;;;;;;;6.40;62.90;;;;;;6275486;22;19907;-69
2021/11/06 05:29:41;;;;;;;;;;;6.40;62.20;;;;;;6277015;22;19900;-69
2021/11/06 05:32:07;;;;;;;;;;;6.40;62.30;;;;;;6277044;22;19899;-68
2021/11/06 05:34:33;;;;;;;;;;;6.40;62.30;;;;;;6276769;22;20311;-69
2021/11/06 05:36:58;;;;;;;;;;;6.40;62.20;;;;;;6276810;22;20262;-68
2021/11/06 05:39:24;;;;;;;;;;;6.40;62.20;;;;;;6276960;22;19970;-68
2021/11/06 05:41:49;;;;;;;;;;;6.30;62.20;;;;;;6276793;22;19903;-68
2021/11/06 05:44:15;;;;;;;;;;;6.30;62.10;;;;;;6276620;22;19910;-68
2021/11/06 05:46:42;;;;;;;;;;;6.30;62.10;;;;;;6276842;22;19906;-69
2021/11/06 05:49:07;;;;;;;;;;;6.30;62.20;;;;;;6276063;22;20222;-69
2021/11/06 05:51:33;;;;;;;;;;;6.20;62.10;;;;;;6276671;22;19906;-68
2021/11/06 05:53:59;;;;;;;;;;;6.20;62.20;;;;;;6276631;22;19899;-68
2021/11/06 05:56:24;;;;;;;;;;;6.20;62.30;;;;;;6276712;22;19906;-68
2021/11/06 05:58:50;;;;;;;;;;;6.20;62.40;;;;;;6276678;22;19899;-68
2021/11/06 06:01:15;;;;;;;;;;;6.20;62.50;;;;;;6274883;22;19903;-69
2021/11/06 06:03:41;;;;;;;;;;;6.20;62.60;;;;;;6276618;22;19935;-68
2021/11/06 06:06:09;;;;;;;;;;;6.20;62.60;;;;;;6276578;22;19899;-69
2021/11/06 06:08:35;;;;;;;;;;;6.20;62.70;;;;;;6276588;22;20323;-69
2021/11/06 06:11:00;;;;;;;;;;;6.20;62.70;;;;;;6276541;22;19899;-69
2021/11/06 06:13:29;;;;;;;;;;;6.20;62.70;;;;;;6276417;22;19982;-69
2021/11/06 06:15:54;;;;;;;;;;;6.10;62.60;;;;;;6276393;22;20373;-69
2021/11/06 06:18:20;;;;;;;;;;;6.10;62.70;;;;;;6276500;22;19911;-69
2021/11/06 06:20:45;;;;;;;;;;;6.10;62.80;;;;;;6276400;22;19899;-69
2021/11/06 06:23:11;;;;;;;;;;;6.10;62.80;;;;;;6276435;22;20354;-69
2021/11/06 06:25:36;;;;;;;;;;;6.10;62.90;;;;;;6276506;22;19899;-69
2021/11/06 06:28:04;;;;;;;;;;;6.20;63.10;;;;;;6276381;22;20277;-69
2021/11/06 06:30:30;;;;;;;;;;;6.20;63.10;;;;;;6274655;22;19922;-69
2021/11/06 06:32:56;;;;;;;;;;;6.20;63.00;;;;;;6274681;22;19899;-69
2021/11/06 06:35:22;;;;;;;;;;;6.20;63.00;;;;;;6276667;22;19913;-69
2021/11/06 06:37:48;;;;;;;;;;;6.20;63.00;;;;;;6276268;22;19945;-69
2021/11/06 06:40:15;;;;;;;;;;;6.20;63.20;;;;;;6276347;22;19899;-69
2021/11/06 06:42:41;;;;;;;;;;;6.30;63.40;;;;;;6276239;22;20553;-69
2021/11/06 06:45:07;;;;;;;;;;;6.30;63.50;;;;;;6274591;22;19953;-69
2021/11/06 06:47:33;;;;;;;;;;;6.30;63.70;;;;;;6276209;22;19974;-69
2021/11/06 06:49:59;;;;;;;;;;;6.40;64.00;;;;;;6276127;22;19903;-69
2021/11/06 06:52:25;;;;;;;;;;;6.40;64.10;;;;;;6274515;22;19900;-69
2021/11/06 06:54:50;;;;;;;;;;;6.50;64.30;;;;;;6274417;22;19993;-69
2021/11/06 06:57:16;;;;;;;;;;;6.50;64.40;;;;;;6276060;22;19911;-69
2021/11/06 06:59:41;;;;;;;;;;;6.60;64.40;;;;;;6275644;22;19907;-69
2021/11/06 07:02:07;;;;;;;;;;;6.70;64.50;;;;;;6274172;22;19982;-68
2021/11/06 07:04:33;;;;;;;;;;;6.70;64.50;;;;;;6275742;22;20278;-69
2021/11/06 07:06:58;;;;;;;;;;;6.80;64.50;;;;;;6275962;22;19903;-69
2021/11/06 07:09:25;;;;;;;;;;;6.80;64.40;;;;;;6276008;22;20028;-69
2021/11/06 07:11:51;;;;;;;;;;;6.90;64.40;;;;;;6274114;22;19895;-69
2021/11/06 07:14:17;;;;;;;;;;;6.90;64.40;;;;;;6275610;22;19927;-69
2021/11/06 07:16:43;;;;;;;;;;;6.90;64.30;;;;;;6276236;22;19925;-69
2021/11/06 07:19:09;;;;;;;;;;;7.00;64.40;;;;;;6276704;22;19899;-69
2021/11/06 07:21:35;;;;;;;;;;;7.00;64.40;;;;;;6276561;22;20382;-69
2021/11/06 07:24:00;;;;;;;;;;;7.10;64.40;;;;;;6275116;22;19904;-69
2021/11/06 07:26:26;;;;;;;;;;;7.10;64.30;;;;;;6275108;22;19899;-69
2021/11/06 07:28:52;;;;;;;;;;;7.20;64.40;;;;;;6276986;22;19899;-69
2021/11/06 07:31:18;;;;;;;;;;;7.20;64.40;;;;;;6275031;22;19899;-69
2021/11/06 07:33:46;;;;;;;;;;;7.30;64.50;;;;;;6276547;22;20394;-69
2021/11/06 07:36:12;;;;;;;;;;;7.30;64.50;;;;;;6276565;22;19945;-69
2021/11/06 07:38:38;;;;;;;;;;;7.40;64.60;;;;;;6276429;22;19899;-69
2021/11/06 07:41:03;;;;;;;;;;;7.40;64.60;;;;;;6276443;22;19914;-69
2021/11/06 07:43:29;;;;;;;;;;;7.40;64.50;;;;;;6276375;22;19903;-69
2021/11/06 07:45:55;;;;;;;;;;;7.50;64.50;;;;;;6276467;22;19984;-69
2021/11/06 07:48:20;;;;;;;;;;;7.50;64.50;;;;;;6276513;22;19899;-69
2021/11/06 07:50:46;;;;;;;;;;;7.60;64.50;;;;;;6276445;22;19899;-69
2021/11/06 07:53:12;;;;;;;;;;;7.60;64.40;;;;;;6276418;22;19927;-68
2021/11/06 07:55:38;;;;;;;;;;;7.60;64.40;;;;;;6276326;22;19970;-68
2021/11/06 07:58:04;;;;;;;;;;;7.60;64.30;;;;;;6276057;22;19906;-69
2021/11/06 08:00:30;;;;;;;;;;;7.70;64.40;;;;;;6274705;22;19899;-69
2021/11/06 08:02:55;;;;;;;;;;;7.70;64.40;;;;;;6276234;22;19934;-69
2021/11/06 08:05:21;;;;;;;;;;;7.80;64.50;;;;;;6274712;22;19900;-69
2021/11/06 08:07:47;;;;;;;;;;;7.80;64.50;;;;;;6275748;22;19899;-69
2021/11/06 08:10:13;;;;;;;;;;;7.90;64.60;;;;;;6273662;22;20337;-69
2021/11/06 08:12:40;;;;;;;;;;;8.00;64.60;;;;;;6274646;22;19911;-69
2021/11/06 08:15:07;;;;;;;;;;;8.00;64.40;;;;;;6274912;22;20320;-69
2021/11/06 08:17:33;;;;;;;;;;;8.10;64.30;;;;;;6274928;22;19952;-69
2021/11/06 08:19:58;;;;;;;;;;;8.10;64.30;;;;;;6274951;22;19907;-69
2021/11/06 08:22:24;;;;;;;;;;;8.20;64.40;;;;;;6275033;22;19961;-70
2021/11/06 08:24:49;;;;;;;;;;;8.30;64.70;;;;;;6275229;22;19931;-69
2021/11/06 08:27:15;;;;;;;;;;;8.40;64.90;;;;;;6274921;22;19903;-70
2021/11/06 08:29:41;;;;;;;;;;;8.50;64.90;;;;;;6275085;22;20371;-69
2021/11/06 08:32:07;;;;;;;;;;;8.60;64.80;;;;;;6273190;22;19899;-70
2021/11/06 08:34:32;;;;;;;;;;;8.70;64.80;;;;;;6273154;22;19906;-69
2021/11/06 08:36:58;;;;;;;;;;;8.70;64.70;;;;;;6274994;22;19899;-69
2021/11/06 08:39:24;;;;;;;;;;;8.90;64.80;;;;;;6274984;22;19899;-70
2021/11/06 08:41:51;;;;;;;;;;;9.00;65.00;;;;;;6275029;22;20330;-69
2021/11/06 08:44:18;;;;;;;;;;;9.10;65.00;;;;;;6274992;22;19903;-70
2021/11/06 08:46:45;;;;;;;;;;;9.20;64.90;;;;;;6274874;22;19899;-69
2021/11/06 08:49:11;;;;;;;;;;;9.30;64.60;;;;;;6275480;22;20381;-69
2021/11/06 08:51:37;;;;;;;;;;;9.40;64.50;;;;;;6275060;22;20373;-70
2021/11/06 08:54:03;;;;;;;;;;;9.50;64.40;;;;;;6274928;22;19978;-70
2021/11/06 08:56:29;;;;;;;;;;;9.60;64.40;;;;;;6274990;22;19974;-69
2021/11/06 08:58:55;;;;;;;;;;;9.70;64.60;;;;;;6273412;22;19899;-70
2021/11/06 09:01:21;;;;;;;;;;;9.90;64.80;;;;;;6274857;22;19905;-70
2021/11/06 09:03:46;;;;;;;;;;;10.10;64.80;;;;;;6274913;22;19931;-69
2021/11/06 09:06:12;;;;;;;;;;;10.20;64.90;;;;;;6275005;22;19903;-70
2021/11/06 09:08:42;;;;;;;;;;;10.40;64.80;;;;;;6274865;22;19978;-70
2021/11/06 09:11:09;;;;;;;;;;;10.60;64.60;;;;;;6274954;22;19899;-69
2021/11/06 09:13:35;;;;;;;;;;;10.70;64.00;;;;;;6273139;22;19981;-69
2021/11/06 09:16:02;;;;;;;;;;;10.90;63.60;;;;;;6274912;22;19981;-69
2021/11/06 09:18:28;;;;;;;;;;;11.00;63.30;;;;;;6273296;22;19913;-68
2021/11/06 09:20:53;;;;;;;;;;;11.00;62.60;;;;;;6274877;22;19926;-69
2021/11/06 09:23:19;;;;;;;;;;;11.00;62.10;;;;;;6275988;22;19907;-69
2021/11/06 09:25:45;;;;;;;;;;;11.00;61.80;;;;;;6272952;22;19899;-70
2021/11/06 09:28:10;;;;;;;;;;;11.00;61.50;;;;;;6275096;22;19914;-70
2021/11/06 09:30:36;;;;;;;;;;;11.00;61.30;;;;;;6275258;22;19951;-70
2021/11/06 09:33:01;;;;;;;;;;;11.00;61.30;;;;;;6274775;22;19961;-70
2021/11/06 09:35:27;;;;;;;;;;;11.00;61.30;;;;;;6276472;22;20273;-69
2021/11/06 09:37:52;;;;;;;;;;;10.90;61.30;;;;;;6276408;22;19930;-69
2021/11/06 09:40:18;;;;;;;;;;;10.90;61.10;;;;;;6276823;22;19953;-69
2021/11/06 09:42:44;;;;;;;;;;;10.90;61.20;;;;;;6276537;22;19948;-69
2021/11/06 09:45:11;;;;;;;;;;;10.90;61.30;;;;;;6276627;22;19903;-69
2021/11/06 09:47:43;;;;;;;;;;;10.90;61.20;;;;;;6276537;22;20092;-69
2021/11/06 09:50:09;;;;;;;;;;;10.90;61.10;;;;;;6276525;22;20234;-69
2021/11/06 09:52:34;;;;;;;;;;;10.90;61.00;;;;;;6276418;22;19899;-68
2021/11/06 09:55:00;;;;;;;;;;;10.90;61.00;;;;;;6276315;22;19900;-69
2021/11/06 09:57:26;;;;;;;;;;;10.90;61.10;;;;;;6276242;22;19899;-69
2021/11/06 09:59:51;;;;;;;;;;;11.00;61.10;;;;;;6274497;22;19945;-69
2021/11/06 10:02:17;;;;;;;;;;;11.00;61.20;;;;;;6275987;22;19910;-68
2021/11/06 10:04:43;;;;;;;;;;;11.00;61.10;;;;;;6276355;22;19906;-69
2021/11/06 10:07:14;;;;;;;;;;;11.00;61.20;;;;;;6276167;22;19899;-69
2021/11/06 10:09:40;;;;;;;;;;;11.10;61.20;;;;;;6274473;22;20276;-69
2021/11/06 10:12:06;;;;;;;;;;;11.10;61.10;;;;;;6276042;22;19907;-69
2021/11/06 10:14:33;;;;;;;;;;;11.10;60.90;;;;;;6275944;22;19957;-70
2021/11/06 10:17:00;;;;;;;;;;;11.20;60.80;;;;;;6274435;22;19909;-70
2021/11/06 10:19:31;;;;;;;;;;;11.20;60.80;;;;;;6276158;22;19899;-70
2021/11/06 10:22:06;;;;;;;;;;;11.20;60.90;;;;;;6276247;22;19903;-70
2021/11/06 10:24:38;;;;;;;;;;;11.30;61.00;;;;;;6275780;22;20330;-70
2021/11/06 10:27:22;;;;;;;;;;;11.30;60.80;;;;;;6274395;22;19981;-70
2021/11/06 10:30:03;;;;;;;;;;;11.40;60.70;;;;;;6275849;22;20033;-70
2021/11/06 10:32:28;;;;;;;;;;;11.40;60.70;;;;;;6271751;22;19900;-69
2021/11/06 10:34:54;;;;;;;;;;;11.50;60.70;;;;;;6274794;22;19978;-68
2021/11/06 10:37:20;;;;;;;;;;;11.50;60.40;;;;;;6275132;22;19910;-69
2021/11/06 10:39:53;;;;;;;;;;;11.60;60.50;;;;;;6275874;22;20291;-70
2021/11/06 10:42:19;;;;;;;;;;;11.60;60.50;;;;;;6275887;22;19903;-68
2021/11/06 10:44:44;;;;;;;;;;;11.60;60.50;;;;;;6276853;22;20262;-70
2021/11/06 10:47:10;;;;;;;;;;;11.70;60.40;;;;;;6275966;22;19922;-69
2021/11/06 10:49:40;;;;;;;;;;;11.70;60.30;;;;;;6276109;22;19923;-70
2021/11/06 10:52:11;;;;;;;;;;;11.70;60.10;;;;;;6275750;22;20349;-70
2021/11/06 10:54:55;;;;;;;;;;;11.80;60.10;;;;;;6275895;22;19903;-70
2021/11/06 10:57:24;;;;;;;;;;;11.80;60.00;;;;;;6275885;22;19899;-70
2021/11/06 11:00:08;;;;;;;;;;;11.90;60.00;;;;;;6275951;22;19903;-69
2021/11/06 11:02:33;;;;;;;;;;;11.90;60.00;;;;;;6275951;22;19903;-67
2021/11/06 11:04:59;;;;;;;;;;;12.00;60.00;;;;;;6276129;22;19921;-69
2021/11/06 11:07:24;;;;;;;;;;;12.00;60.00;;;;;;6276199;22;19927;-69
2021/11/06 11:09:50;;;;;;;;;;;12.00;59.90;;;;;;6274118;22;19953;-69
2021/11/06 11:12:17;;;;;;;;;;;12.10;59.90;;;;;;6275689;22;19899;-68
2021/11/06 11:14:55;;;;;;;;;;;12.10;59.90;;;;;;6275559;22;19919;-68
2021/11/06 11:17:40;;;;;;;;;;;12.10;59.70;;;;;;6275957;22;20315;-68
2021/11/06 11:20:22;;;;;;;;;;;12.20;59.80;;;;;;6276528;22;19903;-68
2021/11/06 11:23:06;;;;;;;;;;;12.20;59.70;;;;;;6275029;22;19903;-68
2021/11/06 11:25:32;;;;;;;;;;;12.30;59.70;;;;;;6275239;22;19944;-69
2021/11/06 11:27:58;;;;;;;;;;;12.30;59.50;;;;;;6275145;22;19974;-69
2021/11/06 11:30:24;;;;;;;;;;;12.40;59.50;;;;;;6276766;22;19943;-72
2021/11/06 11:32:49;;;;;;;;;;;12.30;59.30;;;;;;6275053;22;19919;-72
2021/11/06 11:35:16;;;;;;;;;;;12.40;59.10;;;;;;6276668;22;19899;-73
2021/11/06 11:37:42;;;;;;;;;;;12.50;59.20;;;;;;6276700;22;19895;-72
2021/11/06 11:40:09;;;;;;;;;;;12.50;59.10;;;;;;6276774;22;19948;-73
2021/11/06 11:42:40;;;;;;;;;;;12.50;58.90;;;;;;6276651;22;19910;-72
2021/11/06 11:45:18;;;;;;;;;;;12.60;58.90;;;;;;6276667;22;20319;-72
2021/11/06 11:47:56;;;;;;;;;;;12.70;58.90;;;;;;6276299;22;19977;-72
2021/11/06 11:50:30;;;;;;;;;;;12.70;58.90;;;;;;6275030;22;19899;-73
2021/11/06 11:52:58;;;;;;;;;;;12.70;58.70;;;;;;6276548;22;19974;-72
2021/11/06 11:55:31;;;;;;;;;;;12.80;58.40;;;;;;6276725;22;20259;-72
2021/11/06 11:58:20;;;;;;;;;;;12.90;58.50;;;;;;6276621;22;19899;-72
2021/11/06 12:00:47;;;;;;;;;;;12.90;58.20;;;;;;6274989;22;19906;-72
2021/11/06 12:03:25;;;;;;;;;;;13.00;58.20;;;;;;6276292;22;20335;-72
2021/11/06 12:05:50;;;;;;;;;;;13.00;58.00;;;;;;6276569;22;19899;-72
2021/11/06 12:08:16;;;;;;;;;;;13.10;57.90;;;;;;6276500;22;19906;-72
2021/11/06 12:10:42;;;;;;;;;;;13.10;57.70;;;;;;6274916;22;19899;-72
2021/11/06 12:13:27;;;;;;;;;;;13.10;57.60;;;;;;6274470;22;20009;-72
2021/11/06 12:15:53;;;;;;;;;;;13.10;57.50;;;;;;6276090;22;19910;-73
2021/11/06 12:18:36;;;;;;;;;;;13.20;57.60;;;;;;6276377;22;20216;-72
2021/11/06 12:21:09;;;;;;;;;;;13.20;57.50;;;;;;6274547;22;19899;-72
2021/11/06 12:23:34;;;;;;;;;;;13.20;57.20;;;;;;6276119;22;19934;-72
2021/11/06 12:26:13;;;;;;;;;;;13.30;57.20;;;;;;6274675;22;19900;-72
2021/11/06 12:28:42;;;;;;;;;;;13.30;57.20;;;;;;6276330;22;19929;-71
2021/11/06 12:31:23;;;;;;;;;;;13.30;57.10;;;;;;6276033;22;19899;-71
2021/11/06 12:33:49;;;;;;;;;;;13.30;56.90;;;;;;6276027;22;19978;-71
2021/11/06 12:36:16;;;;;;;;;;;13.30;56.80;;;;;;6276334;22;19899;-71
2021/11/06 12:38:42;;;;;;;;;;;13.40;56.80;;;;;;6276183;22;20269;-71
2021/11/06 12:41:07;;;;;;;;;;;13.40;56.70;;;;;;6276226;22;19934;-71
2021/11/06 12:43:33;;;;;;;;;;;13.40;56.60;;;;;;6276064;22;19926;-71
2021/11/06 12:46:13;;;;;;;;;;;13.40;56.60;;;;;;6276082;22;19981;-71
2021/11/06 12:48:44;;;;;;;;;;;13.40;56.40;;;;;;6274565;22;19899;-71
2021/11/06 12:51:12;;;;;;;;;;;13.50;56.40;;;;;;6276192;22;19948;-71
2021/11/06 12:53:39;;;;;;;;;;;13.50;56.30;;;;;;6276228;22;19927;-72
2021/11/06 12:56:11;;;;;;;;;;;13.50;56.20;;;;;;6276232;22;19908;-72
2021/11/06 12:58:38;;;;;;;;;;;13.50;56.00;;;;;;6277529;22;19899;-71
2021/11/06 13:01:33;;;;;;;;;;;13.50;55.80;;;;;;6278285;22;19903;-72
2021/11/06 13:04:02;;;;;;;;;;;13.50;55.80;;;;;;6270705;22;19927;-73
2021/11/06 13:06:35;;;;;;;;;;;13.60;55.80;;;;;;6278254;22;19950;-72
2021/11/06 13:09:03;;;;;;;;;;;13.60;55.40;;;;;;6278084;22;20311;-72
2021/11/06 13:12:04;;;;;;;;;;;13.60;55.40;;;;;;6278259;22;19899;-72
2021/11/06 13:14:38;;;;;;;;;;;13.60;55.40;;;;;;6244350;23;19951;-72
2021/11/06 13:17:04;;;;;;;;;;;13.60;55.50;;;;;;6244727;23;19899;-72
2021/11/06 13:19:35;;;;;;;;;;;13.60;55.40;;;;;;6244847;23;19899;-72
2021/11/06 13:22:01;;;;;;;;;;;13.70;55.40;;;;;;6244704;23;19911;-72
2021/11/06 13:24:47;;;;;;;;;;;13.70;55.40;;;;;;6244514;23;19904;-72
2021/11/06 13:27:31;;;;;;;;;;;13.70;55.10;;;;;;6233907;23;20290;-72
2021/11/06 13:30:12;;;;;;;;;;;13.70;55.00;;;;;;6244608;23;19923;-72
2021/11/06 13:32:53;;;;;;;;;;;13.70;55.00;;;;;;6243733;23;20015;-72
2021/11/06 13:35:19;;;;;;;;;;;13.70;55.00;;;;;;6244538;23;19940;-72
2021/11/06 13:37:44;;;;;;;;;;;13.80;55.00;;;;;;6244594;23;19906;-72
2021/11/06 13:40:10;;;;;;;;;;;13.70;55.00;;;;;;6243956;23;19900;-72
2021/11/06 13:42:36;;;;;;;;;;;13.70;55.00;;;;;;6244267;23;20166;-71
2021/11/06 13:45:11;;;;;;;;;;;13.70;54.90;;;;;;6219193;23;19906;-71
2021/11/06 13:47:47;;;;;;;;;;;13.80;55.00;;;;;;6249470;22;19902;-71
2021/11/06 13:50:13;;;;;;;;;;;13.80;55.10;;;;;;6250596;22;20310;-71
2021/11/06 13:52:40;;;;;;;;;;;13.80;55.00;;;;;;6277849;22;19895;-71
2021/11/06 13:55:10;;;;;;;;;;;13.70;54.90;;;;;;6277666;22;19970;-71
2021/11/06 13:57:36;;;;;;;;;;;13.80;55.00;;;;;;6277736;22;19903;-72
2021/11/06 14:00:02;;;;;;;;;;;13.70;54.80;;;;;;6277733;22;19899;-72
2021/11/06 14:02:28;;;;;;;;;;;13.70;54.70;;;;;;6277547;22;20033;-71
2021/11/06 14:04:55;;;;;;;;;;;13.70;54.80;;;;;;6277612;22;19927;-71
2021/11/06 14:07:22;;;;;;;;;;;13.70;54.80;;;;;;6277535;22;19906;-72
2021/11/06 14:09:49;;;;;;;;;;;13.60;54.80;;;;;;6277001;22;19929;-72
2021/11/06 14:12:15;;;;;;;;;;;13.70;54.90;;;;;;6277504;22;20319;-72
2021/11/06 14:14:49;;;;;;;;;;;13.60;54.90;;;;;;6277417;22;19911;-72
2021/11/06 14:17:14;;;;;;;;;;;13.60;54.90;;;;;;6277432;22;19899;-72
2021/11/06 14:19:50;;;;;;;;;;;13.50;54.90;;;;;;6277541;22;19895;-72
2021/11/06 14:22:22;;;;;;;;;;;13.50;54.80;;;;;;6277045;22;19904;-72
2021/11/06 14:24:48;;;;;;;;;;;13.50;54.90;;;;;;6276920;22;19970;-72
2021/11/06 14:27:14;;;;;;;;;;;13.50;55.10;;;;;;6277491;22;20272;-71